Elkin Municipal Airport


Codes: KZEF/
Name: Elkin Municipal Airport
City: Elkin
Country: United States
Elevation: 1068 ft.
Wikipedia:

Photos at Elkin Municipal Airport


   Photos courtesy of SpottingLog. You can add your own sightings and photos by signing up for a free trial today.



No photos found.

Weather at Elkin Municipal Airport


Time (UTC)DescriptionTempratureWindCloud coverageVisibilityPressureHumidity
21-Jun-2024 12:00Clear Sky18°C0 mph, NW2%10000m1024hPa82%
21-Jun-2024 15:00Clear Sky25°C2 mph, S2%10000m1024hPa61%
21-Jun-2024 18:00Clear Sky33°C4 mph, SE1%10000m1021hPa35%
21-Jun-2024 21:00Clear Sky33°C4 mph, SE0%10000m1019hPa32%
22-Jun-2024 00:00Clear Sky27°C4 mph, S0%10000m1019hPa52%
22-Jun-2024 03:00Clear Sky22°C2 mph, W0%10000m1020hPa63%
22-Jun-2024 06:00Clear Sky20°C2 mph, NW0%10000m1021hPa71%
22-Jun-2024 09:00Clear Sky19°C2 mph, W0%10000m1020hPa77%
22-Jun-2024 12:00Clear Sky22°C2 mph, W0%10000m1021hPa68%
22-Jun-2024 15:00Clear Sky30°C4 mph, SW0%10000m1019hPa40%
22-Jun-2024 18:00Clear Sky34°C4 mph, S0%10000m1017hPa29%
22-Jun-2024 21:00Clear Sky35°C7 mph, S0%10000m1014hPa26%
23-Jun-2024 00:00Few Clouds28°C4 mph, S19%10000m1014hPa50%
23-Jun-2024 03:00Scattered Clouds23°C2 mph, SW48%10000m1015hPa64%
23-Jun-2024 06:00Scattered Clouds22°C4 mph, SW25%10000m1015hPa70%
23-Jun-2024 09:00Clear Sky20°C4 mph, SW1%10000m1014hPa85%
23-Jun-2024 12:00Clear Sky23°C2 mph, SW8%10000m1015hPa74%
23-Jun-2024 15:00Overcast Clouds30°C7 mph, SW98%10000m1013hPa49%
23-Jun-2024 18:00Overcast Clouds34°C7 mph, W95%10000m1011hPa37%
23-Jun-2024 21:00Overcast Clouds35°C9 mph, W88%10000m1009hPa27%
24-Jun-2024 00:00Overcast Clouds28°C4 mph, NW91%10000m1009hPa51%
24-Jun-2024 03:00Overcast Clouds24°C2 mph, W90%10000m1010hPa57%
24-Jun-2024 06:00Light Rain23°C2 mph, NW93%10000m1010hPa67%
24-Jun-2024 09:00Light Rain20°C4 mph, NW100%10000m1009hPa90%
24-Jun-2024 12:00Light Rain22°C4 mph, NW72%10000m1011hPa90%
24-Jun-2024 15:00Light Rain31°C7 mph, NW1%10000m1011hPa51%
24-Jun-2024 18:00Clear Sky35°C9 mph, NW2%10000m1009hPa30%
24-Jun-2024 21:00Clear Sky35°C9 mph, NW0%10000m1008hPa29%
25-Jun-2024 00:00Clear Sky28°C7 mph, N0%10000m1010hPa45%
25-Jun-2024 03:00Clear Sky23°C7 mph, N0%10000m1012hPa59%
25-Jun-2024 06:00Clear Sky21°C4 mph, N0%10000m1013hPa66%
25-Jun-2024 09:00Clear Sky20°C4 mph, N0%10000m1013hPa68%
25-Jun-2024 12:00Clear Sky23°C2 mph, N0%10000m1014hPa63%
25-Jun-2024 15:00Clear Sky31°C2 mph, E2%10000m1014hPa40%
25-Jun-2024 18:00Clear Sky35°C4 mph, SW1%10000m1012hPa29%
25-Jun-2024 21:00Clear Sky36°C7 mph, SW0%10000m1010hPa26%
26-Jun-2024 00:00Clear Sky30°C4 mph, SE9%10000m1010hPa44%
26-Jun-2024 03:00Few Clouds24°C2 mph, W16%10000m1012hPa53%
26-Jun-2024 06:00Clear Sky22°C2 mph, NW9%10000m1011hPa62%
26-Jun-2024 09:00Clear Sky21°C2 mph, NW0%10000m1011hPa68%